sensor_id;sensor_type;location;lat;lon;timestamp;temperature;humidity
5278;DHT22;2662;51.194;6.614;2022-09-13T00:01:02;18.40;99.90
5278;DHT22;2662;51.194;6.614;2022-09-13T00:03:29;18.40;99.90
5278;DHT22;2662;51.194;6.614;2022-09-13T00:05:56;18.30;99.90
5278;DHT22;2662;51.194;6.614;2022-09-13T00:08:24;18.40;99.90
5278;DHT22;2662;51.194;6.614;2022-09-13T00:10:51;18.50;99.90
5278;DHT22;2662;51.194;6.614;2022-09-13T00:13:19;18.50;99.90
5278;DHT22;2662;51.194;6.614;2022-09-13T00:15:48;18.50;99.90
5278;DHT22;2662;51.194;6.614;2022-09-13T00:18:17;18.50;99.90
5278;DHT22;2662;51.194;6.614;2022-09-13T00:20:44;18.60;99.90
5278;DHT22;2662;51.194;6.614;2022-09-13T00:23:11;18.60;99.90
5278;DHT22;2662;51.194;6.614;2022-09-13T00:25:38;18.60;99.90
5278;DHT22;2662;51.194;6.614;2022-09-13T00:28:05;18.70;99.90
5278;DHT22;2662;51.194;6.614;2022-09-13T00:30:34;18.70;99.90
5278;DHT22;2662;51.194;6.614;2022-09-13T00:33:00;18.70;99.90
5278;DHT22;2662;51.194;6.614;2022-09-13T00:35:28;18.80;99.90
5278;DHT22;2662;51.194;6.614;2022-09-13T00:37:57;18.90;99.90
5278;DHT22;2662;51.194;6.614;2022-09-13T00:40:24;18.90;99.90
5278;DHT22;2662;51.194;6.614;2022-09-13T00:42:51;18.90;99.90
5278;DHT22;2662;51.194;6.614;2022-09-13T00:45:18;19.00;99.90
5278;DHT22;2662;51.194;6.614;2022-09-13T00:47:49;19.00;99.90
5278;DHT22;2662;51.194;6.614;2022-09-13T00:50:21;19.10;99.90
5278;DHT22;2662;51.194;6.614;2022-09-13T00:52:52;19.10;99.90
5278;DHT22;2662;51.194;6.614;2022-09-13T00:55:24;19.10;99.90
5278;DHT22;2662;51.194;6.614;2022-09-13T00:57:56;19.10;99.90
5278;DHT22;2662;51.194;6.614;2022-09-13T01:00:25;19.20;99.90
5278;DHT22;2662;51.194;6.614;2022-09-13T01:02:55;19.10;99.90
5278;DHT22;2662;51.194;6.614;2022-09-13T01:05:25;19.10;99.90
5278;DHT22;2662;51.194;6.614;2022-09-13T01:07:53;19.00;99.90
5278;DHT22;2662;51.194;6.614;2022-09-13T01:10:21;19.00;99.90
5278;DHT22;2662;51.194;6.614;2022-09-13T01:12:51;18.90;99.90
5278;DHT22;2662;51.194;6.614;2022-09-13T01:15:20;18.90;99.90
5278;DHT22;2662;51.194;6.614;2022-09-13T01:17:47;18.90;99.90
5278;DHT22;2662;51.194;6.614;2022-09-13T01:20:16;18.90;99.90
5278;DHT22;2662;51.194;6.614;2022-09-13T01:23:12;18.80;99.90
5278;DHT22;2662;51.194;6.614;2022-09-13T01:29:04;18.70;99.90
5278;DHT22;2662;51.194;6.614;2022-09-13T01:31:44;18.70;99.90
5278;DHT22;2662;51.194;6.614;2022-09-13T01:34:26;18.60;99.90
5278;DHT22;2662;51.194;6.614;2022-09-13T01:37:07;18.60;99.90
5278;DHT22;2662;51.194;6.614;2022-09-13T01:39:53;18.60;99.90
5278;DHT22;2662;51.194;6.614;2022-09-13T01:42:29;18.60;99.90
5278;DHT22;2662;51.194;6.614;2022-09-13T01:45:13;18.50;99.90
5278;DHT22;2662;51.194;6.614;2022-09-13T01:47:49;18.50;99.90
5278;DHT22;2662;51.194;6.614;2022-09-13T01:50:22;18.50;99.90
5278;DHT22;2662;51.194;6.614;2022-09-13T01:52:54;18.50;99.90
5278;DHT22;2662;51.194;6.614;2022-09-13T01:55:30;18.50;99.90
5278;DHT22;2662;51.194;6.614;2022-09-13T01:58:04;18.50;99.90
5278;DHT22;2662;51.194;6.614;2022-09-13T02:00:36;18.50;99.90
5278;DHT22;2662;51.194;6.614;2022-09-13T02:03:08;18.40;99.90
5278;DHT22;2662;51.194;6.614;2022-09-13T02:05:40;18.50;99.90
5278;DHT22;2662;51.194;6.614;2022-09-13T02:08:09;18.50;99.90
5278;DHT22;2662;51.194;6.614;2022-09-13T02:10:40;18.60;99.90
5278;DHT22;2662;51.194;6.614;2022-09-13T02:13:13;18.60;99.90
5278;DHT22;2662;51.194;6.614;2022-09-13T02:15:45;18.60;99.90
5278;DHT22;2662;51.194;6.614;2022-09-13T02:18:17;18.60;99.90
5278;DHT22;2662;51.194;6.614;2022-09-13T02:20:48;18.60;99.90
5278;DHT22;2662;51.194;6.614;2022-09-13T02:23:20;18.60;99.90
5278;DHT22;2662;51.194;6.614;2022-09-13T02:25:50;18.60;99.90
5278;DHT22;2662;51.194;6.614;2022-09-13T02:28:22;18.70;99.90
5278;DHT22;2662;51.194;6.614;2022-09-13T02:30:52;18.70;99.90
5278;DHT22;2662;51.194;6.614;2022-09-13T02:33:26;18.70;99.90
5278;DHT22;2662;51.194;6.614;2022-09-13T02:35:58;18.70;99.90
5278;DHT22;2662;51.194;6.614;2022-09-13T02:38:28;18.80;99.90
5278;DHT22;2662;51.194;6.614;2022-09-13T02:40:59;18.80;99.90
5278;DHT22;2662;51.194;6.614;2022-09-13T02:43:30;18.90;99.90
5278;DHT22;2662;51.194;6.614;2022-09-13T02:46:09;18.90;99.90
5278;DHT22;2662;51.194;6.614;2022-09-13T02:48:47;19.00;99.90
5278;DHT22;2662;51.194;6.614;2022-09-13T02:51:20;19.00;99.90
5278;DHT22;2662;51.194;6.614;2022-09-13T02:53:52;19.00;99.90
5278;DHT22;2662;51.194;6.614;2022-09-13T02:56:27;19.00;99.90
5278;DHT22;2662;51.194;6.614;2022-09-13T02:58:58;18.90;99.90
5278;DHT22;2662;51.194;6.614;2022-09-13T03:01:28;18.70;99.90
5278;DHT22;2662;51.194;6.614;2022-09-13T03:03:56;18.60;99.90
5278;DHT22;2662;51.194;6.614;2022-09-13T03:06:24;18.50;99.90
5278;DHT22;2662;51.194;6.614;2022-09-13T03:08:51;18.40;99.90
5278;DHT22;2662;51.194;6.614;2022-09-13T03:11:24;18.30;99.90
5278;DHT22;2662;51.194;6.614;2022-09-13T03:14:09;18.30;99.90
5278;DHT22;2662;51.194;6.614;2022-09-13T03:16:50;18.30;99.90
5278;DHT22;2662;51.194;6.614;2022-09-13T03:19:28;18.20;99.90
5278;DHT22;2662;51.194;6.614;2022-09-13T03:22:14;18.20;99.90
5278;DHT22;2662;51.194;6.614;2022-09-13T03:24:50;18.20;99.90
5278;DHT22;2662;51.194;6.614;2022-09-13T03:27:28;18.20;99.90
5278;DHT22;2662;51.194;6.614;2022-09-13T03:30:01;18.10;99.90
5278;DHT22;2662;51.194;6.614;2022-09-13T03:32:34;18.10;99.90
5278;DHT22;2662;51.194;6.614;2022-09-13T03:35:13;18.10;99.90
5278;DHT22;2662;51.194;6.614;2022-09-13T03:37:49;18.00;99.90
5278;DHT22;2662;51.194;6.614;2022-09-13T03:40:24;18.00;99.90
5278;DHT22;2662;51.194;6.614;2022-09-13T03:42:54;18.00;99.90
5278;DHT22;2662;51.194;6.614;2022-09-13T03:45:27;18.00;99.90
5278;DHT22;2662;51.194;6.614;2022-09-13T03:47:55;18.00;99.90
5278;DHT22;2662;51.194;6.614;2022-09-13T03:50:24;18.00;99.90
5278;DHT22;2662;51.194;6.614;2022-09-13T03:52:55;17.90;99.90
5278;DHT22;2662;51.194;6.614;2022-09-13T03:55:24;17.90;99.90
5278;DHT22;2662;51.194;6.614;2022-09-13T03:57:51;17.90;99.90
5278;DHT22;2662;51.194;6.614;2022-09-13T04:00:18;17.90;99.90
5278;DHT22;2662;51.194;6.614;2022-09-13T04:02:45;18.00;99.90
5278;DHT22;2662;51.194;6.614;2022-09-13T04:05:12;18.00;99.90
5278;DHT22;2662;51.194;6.614;2022-09-13T04:07:40;18.10;99.90
5278;DHT22;2662;51.194;6.614;2022-09-13T04:10:08;18.10;99.90
5278;DHT22;2662;51.194;6.614;2022-09-13T04:12:35;18.10;99.90
5278;DHT22;2662;51.194;6.614;2022-09-13T04:15:02;18.20;99.90
5278;DHT22;2662;51.194;6.614;2022-09-13T04:17:29;18.20;99.90
5278;DHT22;2662;51.194;6.614;2022-09-13T04:19:55;18.20;99.90
5278;DHT22;2662;51.194;6.614;2022-09-13T04:22:22;18.20;99.90
5278;DHT22;2662;51.194;6.614;2022-09-13T04:24:50;18.20;99.90
5278;DHT22;2662;51.194;6.614;2022-09-13T04:27:17;18.20;99.90
5278;DHT22;2662;51.194;6.614;2022-09-13T04:29:44;18.20;99.90
5278;DHT22;2662;51.194;6.614;2022-09-13T04:32:11;18.20;99.90
5278;DHT22;2662;51.194;6.614;2022-09-13T04:34:37;18.20;99.90
5278;DHT22;2662;51.194;6.614;2022-09-13T04:37:04;18.30;99.90
5278;DHT22;2662;51.194;6.614;2022-09-13T04:39:31;18.30;99.90
5278;DHT22;2662;51.194;6.614;2022-09-13T04:41:59;18.30;99.90
5278;DHT22;2662;51.194;6.614;2022-09-13T04:44:26;18.30;99.90
5278;DHT22;2662;51.194;6.614;2022-09-13T04:46:54;18.30;99.90
5278;DHT22;2662;51.194;6.614;2022-09-13T04:49:21;18.30;99.90
5278;DHT22;2662;51.194;6.614;2022-09-13T04:51:47;18.40;99.90
5278;DHT22;2662;51.194;6.614;2022-09-13T04:54:14;18.40;99.90
5278;DHT22;2662;51.194;6.614;2022-09-13T04:56:41;18.40;99.90
5278;DHT22;2662;51.194;6.614;2022-09-13T04:59:09;18.40;99.90
5278;DHT22;2662;51.194;6.614;2022-09-13T05:01:37;18.30;99.90
5278;DHT22;2662;51.194;6.614;2022-09-13T05:04:04;18.30;99.90
5278;DHT22;2662;51.194;6.614;2022-09-13T05:06:31;18.20;99.90
5278;DHT22;2662;51.194;6.614;2022-09-13T05:08:58;18.20;99.90
5278;DHT22;2662;51.194;6.614;2022-09-13T05:11:26;18.10;99.90
5278;DHT22;2662;51.194;6.614;2022-09-13T05:13:55;18.20;99.90
5278;DHT22;2662;51.194;6.614;2022-09-13T05:16:25;18.10;99.90
5278;DHT22;2662;51.194;6.614;2022-09-13T05:18:52;18.10;99.90
5278;DHT22;2662;51.194;6.614;2022-09-13T05:21:19;18.20;99.90
5278;DHT22;2662;51.194;6.614;2022-09-13T05:23:47;18.20;99.90
5278;DHT22;2662;51.194;6.614;2022-09-13T05:26:15;18.20;99.90
5278;DHT22;2662;51.194;6.614;2022-09-13T05:28:41;18.20;99.90
5278;DHT22;2662;51.194;6.614;2022-09-13T05:31:12;18.30;99.90
5278;DHT22;2662;51.194;6.614;2022-09-13T05:33:41;18.30;99.90
5278;DHT22;2662;51.194;6.614;2022-09-13T05:36:08;18.30;99.90
5278;DHT22;2662;51.194;6.614;2022-09-13T05:38:35;18.40;99.90
5278;DHT22;2662;51.194;6.614;2022-09-13T05:41:03;18.40;99.90
5278;DHT22;2662;51.194;6.614;2022-09-13T05:43:32;18.50;99.90
5278;DHT22;2662;51.194;6.614;2022-09-13T05:46:00;18.50;99.90
5278;DHT22;2662;51.194;6.614;2022-09-13T05:48:27;18.60;99.90
5278;DHT22;2662;51.194;6.614;2022-09-13T05:50:55;18.70;99.90
5278;DHT22;2662;51.194;6.614;2022-09-13T05:53:22;18.70;99.90
5278;DHT22;2662;51.194;6.614;2022-09-13T05:55:49;18.80;99.90
5278;DHT22;2662;51.194;6.614;2022-09-13T05:58:16;18.90;99.90
5278;DHT22;2662;51.194;6.614;2022-09-13T06:00:42;18.90;99.90
5278;DHT22;2662;51.194;6.614;2022-09-13T06:03:09;19.00;99.90
5278;DHT22;2662;51.194;6.614;2022-09-13T06:05:36;19.10;99.90
5278;DHT22;2662;51.194;6.614;2022-09-13T06:08:04;19.10;99.90
5278;DHT22;2662;51.194;6.614;2022-09-13T06:10:30;19.20;99.90
5278;DHT22;2662;51.194;6.614;2022-09-13T06:12:58;19.30;99.90
5278;DHT22;2662;51.194;6.614;2022-09-13T06:15:24;19.30;99.90
5278;DHT22;2662;51.194;6.614;2022-09-13T06:17:51;19.50;99.90
5278;DHT22;2662;51.194;6.614;2022-09-13T06:20:18;19.60;99.90
5278;DHT22;2662;51.194;6.614;2022-09-13T06:22:46;19.60;99.90
5278;DHT22;2662;51.194;6.614;2022-09-13T06:25:14;19.70;99.90
5278;DHT22;2662;51.194;6.614;2022-09-13T06:27:41;19.80;99.90
5278;DHT22;2662;51.194;6.614;2022-09-13T06:30:08;19.90;99.90
5278;DHT22;2662;51.194;6.614;2022-09-13T06:32:37;20.00;99.90
5278;DHT22;2662;51.194;6.614;2022-09-13T06:35:05;20.10;99.90
5278;DHT22;2662;51.194;6.614;2022-09-13T06:37:31;20.30;99.90
5278;DHT22;2662;51.194;6.614;2022-09-13T06:39:58;20.30;99.90
5278;DHT22;2662;51.194;6.614;2022-09-13T06:42:26;20.40;99.90
5278;DHT22;2662;51.194;6.614;2022-09-13T06:44:53;20.40;99.90
5278;DHT22;2662;51.194;6.614;2022-09-13T06:47:20;20.40;99.90
5278;DHT22;2662;51.194;6.614;2022-09-13T06:49:46;20.40;99.90
5278;DHT22;2662;51.194;6.614;2022-09-13T06:52:13;20.40;99.90
5278;DHT22;2662;51.194;6.614;2022-09-13T06:54:40;20.40;99.90
5278;DHT22;2662;51.194;6.614;2022-09-13T06:57:08;20.40;99.90
5278;DHT22;2662;51.194;6.614;2022-09-13T06:59:36;20.50;99.90
5278;DHT22;2662;51.194;6.614;2022-09-13T07:02:02;20.70;99.90
5278;DHT22;2662;51.194;6.614;2022-09-13T07:04:29;20.70;99.90
5278;DHT22;2662;51.194;6.614;2022-09-13T07:06:57;20.70;99.90
5278;DHT22;2662;51.194;6.614;2022-09-13T07:09:24;20.90;99.90
5278;DHT22;2662;51.194;6.614;2022-09-13T07:11:53;20.90;99.90
5278;DHT22;2662;51.194;6.614;2022-09-13T07:14:22;20.90;99.90
5278;DHT22;2662;51.194;6.614;2022-09-13T07:16:51;20.90;99.90
5278;DHT22;2662;51.194;6.614;2022-09-13T07:19:20;21.00;99.90
5278;DHT22;2662;51.194;6.614;2022-09-13T07:21:48;21.10;99.90
5278;DHT22;2662;51.194;6.614;2022-09-13T07:24:15;21.10;99.90
5278;DHT22;2662;51.194;6.614;2022-09-13T07:26:42;21.30;99.90
5278;DHT22;2662;51.194;6.614;2022-09-13T07:29:12;21.40;99.90
5278;DHT22;2662;51.194;6.614;2022-09-13T07:31:42;21.60;99.90
5278;DHT22;2662;51.194;6.614;2022-09-13T07:34:13;21.70;99.90
5278;DHT22;2662;51.194;6.614;2022-09-13T07:36:41;21.90;99.90
5278;DHT22;2662;51.194;6.614;2022-09-13T07:39:09;21.90;99.90
5278;DHT22;2662;51.194;6.614;2022-09-13T07:41:39;21.80;99.90
5278;DHT22;2662;51.194;6.614;2022-09-13T07:44:05;21.90;99.90
5278;DHT22;2662;51.194;6.614;2022-09-13T07:46:34;22.00;99.90
5278;DHT22;2662;51.194;6.614;2022-09-13T07:49:05;22.10;99.90
5278;DHT22;2662;51.194;6.614;2022-09-13T07:51:34;22.30;99.90
5278;DHT22;2662;51.194;6.614;2022-09-13T07:54:03;22.50;99.90
5278;DHT22;2662;51.194;6.614;2022-09-13T07:56:31;22.80;99.90
5278;DHT22;2662;51.194;6.614;2022-09-13T07:59:00;23.10;99.90
5278;DHT22;2662;51.194;6.614;2022-09-13T08:01:29;23.20;99.90
5278;DHT22;2662;51.194;6.614;2022-09-13T08:03:57;23.40;99.90
5278;DHT22;2662;51.194;6.614;2022-09-13T08:06:26;23.80;99.90
5278;DHT22;2662;51.194;6.614;2022-09-13T08:08:54;24.60;99.90
5278;DHT22;2662;51.194;6.614;2022-09-13T08:11:23;25.20;99.90
5278;DHT22;2662;51.194;6.614;2022-09-13T08:13:51;25.30;99.90
5278;DHT22;2662;51.194;6.614;2022-09-13T08:16:19;25.80;99.90
5278;DHT22;2662;51.194;6.614;2022-09-13T08:18:48;26.00;99.90
5278;DHT22;2662;51.194;6.614;2022-09-13T08:21:15;26.70;99.90
5278;DHT22;2662;51.194;6.614;2022-09-13T08:23:43;27.50;99.90
5278;DHT22;2662;51.194;6.614;2022-09-13T08:26:11;28.30;99.90
5278;DHT22;2662;51.194;6.614;2022-09-13T08:28:39;29.30;99.90
5278;DHT22;2662;51.194;6.614;2022-09-13T08:31:08;30.40;99.90
5278;DHT22;2662;51.194;6.614;2022-09-13T08:33:36;31.20;99.90
5278;DHT22;2662;51.194;6.614;2022-09-13T08:36:04;32.00;99.90
5278;DHT22;2662;51.194;6.614;2022-09-13T08:38:31;32.80;99.90
5278;DHT22;2662;51.194;6.614;2022-09-13T08:41:01;33.60;99.90
5278;DHT22;2662;51.194;6.614;2022-09-13T08:43:39;33.90;99.10
5278;DHT22;2662;51.194;6.614;2022-09-13T08:46:12;34.60;98.60
5278;DHT22;2662;51.194;6.614;2022-09-13T08:48:46;35.20;97.30
5278;DHT22;2662;51.194;6.614;2022-09-13T08:51:25;35.50;95.10
5278;DHT22;2662;51.194;6.614;2022-09-13T08:53:54;35.00;94.20
5278;DHT22;2662;51.194;6.614;2022-09-13T08:56:28;34.80;94.20
5278;DHT22;2662;51.194;6.614;2022-09-13T08:59:13;34.60;94.20
5278;DHT22;2662;51.194;6.614;2022-09-13T09:01:49;33.90;94.20
5278;DHT22;2662;51.194;6.614;2022-09-13T09:04:33;33.90;94.90
5278;DHT22;2662;51.194;6.614;2022-09-13T09:07:05;34.40;94.40
5278;DHT22;2662;51.194;6.614;2022-09-13T09:09:38;34.60;93.10
5278;DHT22;2662;51.194;6.614;2022-09-13T09:12:14;34.70;93.30
5278;DHT22;2662;51.194;6.614;2022-09-13T09:14:47;34.50;93.40
5278;DHT22;2662;51.194;6.614;2022-09-13T09:17:20;34.90;92.70
5278;DHT22;2662;51.194;6.614;2022-09-13T09:19:49;35.50;92.70
5278;DHT22;2662;51.194;6.614;2022-09-13T09:22:19;35.90;91.40
5278;DHT22;2662;51.194;6.614;2022-09-13T09:24:49;35.70;91.30
5278;DHT22;2662;51.194;6.614;2022-09-13T09:27:18;36.00;91.10
5278;DHT22;2662;51.194;6.614;2022-09-13T09:29:49;35.80;90.20
5278;DHT22;2662;51.194;6.614;2022-09-13T09:32:44;35.20;90.50
5278;DHT22;2662;51.194;6.614;2022-09-13T09:35:17;34.90;90.00
5278;DHT22;2662;51.194;6.614;2022-09-13T09:37:59;35.00;90.80
5278;DHT22;2662;51.194;6.614;2022-09-13T09:40:33;35.60;90.20
5278;DHT22;2662;51.194;6.614;2022-09-13T09:43:01;35.10;90.60
5278;DHT22;2662;51.194;6.614;2022-09-13T09:45:39;35.00;90.20
5278;DHT22;2662;51.194;6.614;2022-09-13T09:48:11;34.30;90.30
5278;DHT22;2662;51.194;6.614;2022-09-13T09:50:46;33.90;90.50
5278;DHT22;2662;51.194;6.614;2022-09-13T09:53:18;33.40;90.90
5278;DHT22;2662;51.194;6.614;2022-09-13T09:55:50;33.70;91.50
5278;DHT22;2662;51.194;6.614;2022-09-13T09:58:35;34.00;91.20
5278;DHT22;2662;51.194;6.614;2022-09-13T10:01:05;34.30;91.30
5278;DHT22;2662;51.194;6.614;2022-09-13T10:03:40;34.20;90.90
5278;DHT22;2662;51.194;6.614;2022-09-13T10:06:08;34.00;90.70
5278;DHT22;2662;51.194;6.614;2022-09-13T10:08:39;34.10;90.70
5278;DHT22;2662;51.194;6.614;2022-09-13T10:11:06;34.30;90.20
5278;DHT22;2662;51.194;6.614;2022-09-13T10:13:34;34.80;89.80
5278;DHT22;2662;51.194;6.614;2022-09-13T10:16:05;35.10;90.80
5278;DHT22;2662;51.194;6.614;2022-09-13T10:18:33;35.60;89.40
5278;DHT22;2662;51.194;6.614;2022-09-13T10:21:03;35.60;90.20
5278;DHT22;2662;51.194;6.614;2022-09-13T10:23:31;35.70;89.60
5278;DHT22;2662;51.194;6.614;2022-09-13T10:26:07;35.00;88.60
5278;DHT22;2662;51.194;6.614;2022-09-13T10:28:40;34.80;88.30
5278;DHT22;2662;51.194;6.614;2022-09-13T10:31:12;35.00;89.40
5278;DHT22;2662;51.194;6.614;2022-09-13T10:33:40;34.70;88.80
5278;DHT22;2662;51.194;6.614;2022-09-13T10:36:13;34.40;90.50
5278;DHT22;2662;51.194;6.614;2022-09-13T10:38:43;34.20;90.60
5278;DHT22;2662;51.194;6.614;2022-09-13T10:41:21;34.00;90.50
5278;DHT22;2662;51.194;6.614;2022-09-13T10:43:55;33.60;90.70
5278;DHT22;2662;51.194;6.614;2022-09-13T10:46:27;33.20;90.80
5278;DHT22;2662;51.194;6.614;2022-09-13T10:48:55;32.70;91.60
5278;DHT22;2662;51.194;6.614;2022-09-13T10:51:32;32.10;93.10
5278;DHT22;2662;51.194;6.614;2022-09-13T10:54:17;31.40;93.10
5278;DHT22;2662;51.194;6.614;2022-09-13T10:56:46;30.80;93.80
5278;DHT22;2662;51.194;6.614;2022-09-13T10:59:21;30.40;94.80
5278;DHT22;2662;51.194;6.614;2022-09-13T11:02:07;30.30;95.10
5278;DHT22;2662;51.194;6.614;2022-09-13T11:08:06;29.90;95.90
5278;DHT22;2662;51.194;6.614;2022-09-13T11:10:45;29.70;96.20
5278;DHT22;2662;51.194;6.614;2022-09-13T11:13:23;29.50;96.30
5278;DHT22;2662;51.194;6.614;2022-09-13T11:15:56;29.50;97.30
5278;DHT22;2662;51.194;6.614;2022-09-13T11:21:32;29.30;97.90
5278;DHT22;2662;51.194;6.614;2022-09-13T11:24:11;29.40;98.50
5278;DHT22;2662;51.194;6.614;2022-09-13T11:26:58;29.30;97.90
5278;DHT22;2662;51.194;6.614;2022-09-13T11:29:36;29.20;97.70
5278;DHT22;2662;51.194;6.614;2022-09-13T11:32:18;29.30;98.70
5278;DHT22;2662;51.194;6.614;2022-09-13T11:35:02;29.40;98.50
5278;DHT22;2662;51.194;6.614;2022-09-13T11:37:45;29.60;98.20
5278;DHT22;2662;51.194;6.614;2022-09-13T11:40:30;29.30;98.20
5278;DHT22;2662;51.194;6.614;2022-09-13T11:43:18;29.20;98.80
5278;DHT22;2662;51.194;6.614;2022-09-13T11:45:56;29.30;98.90
5278;DHT22;2662;51.194;6.614;2022-09-13T11:51:24;29.20;98.40
5278;DHT22;2662;51.194;6.614;2022-09-13T11:54:05;29.20;99.10
5278;DHT22;2662;51.194;6.614;2022-09-13T11:56:37;29.10;99.20
5278;DHT22;2662;51.194;6.614;2022-09-13T11:59:15;29.20;99.00
5278;DHT22;2662;51.194;6.614;2022-09-13T12:01:48;29.40;99.30
5278;DHT22;2662;51.194;6.614;2022-09-13T12:04:20;29.40;99.30
5278;DHT22;2662;51.194;6.614;2022-09-13T12:06:51;29.20;99.20
5278;DHT22;2662;51.194;6.614;2022-09-13T12:09:22;29.40;99.90
5278;DHT22;2662;51.194;6.614;2022-09-13T12:11:53;29.50;98.00
5278;DHT22;2662;51.194;6.614;2022-09-13T12:14:26;29.20;99.20
5278;DHT22;2662;51.194;6.614;2022-09-13T12:16:57;29.50;99.80
5278;DHT22;2662;51.194;6.614;2022-09-13T12:19:27;29.70;98.80
5278;DHT22;2662;51.194;6.614;2022-09-13T12:21:57;29.50;98.70
5278;DHT22;2662;51.194;6.614;2022-09-13T12:24:37;29.40;99.80
5278;DHT22;2662;51.194;6.614;2022-09-13T12:27:10;29.30;99.00
5278;DHT22;2662;51.194;6.614;2022-09-13T12:29:44;29.20;99.70
5278;DHT22;2662;51.194;6.614;2022-09-13T12:32:14;29.20;99.90
5278;DHT22;2662;51.194;6.614;2022-09-13T12:34:44;29.20;99.40
5278;DHT22;2662;51.194;6.614;2022-09-13T12:37:27;29.00;99.00
5278;DHT22;2662;51.194;6.614;2022-09-13T12:43:11;29.00;99.30
5278;DHT22;2662;51.194;6.614;2022-09-13T12:49:03;29.00;99.90
5278;DHT22;2662;51.194;6.614;2022-09-13T12:51:49;29.00;99.90
5278;DHT22;2662;51.194;6.614;2022-09-13T12:54:49;29.10;99.50
5278;DHT22;2662;51.194;6.614;2022-09-13T12:57:27;29.00;99.60
5278;DHT22;2662;51.194;6.614;2022-09-13T13:00:25;28.90;99.90
5278;DHT22;2662;51.194;6.614;2022-09-13T13:03:02;28.90;99.90
5278;DHT22;2662;51.194;6.614;2022-09-13T13:05:39;29.00;99.90
5278;DHT22;2662;51.194;6.614;2022-09-13T13:08:25;29.00;99.50
5278;DHT22;2662;51.194;6.614;2022-09-13T13:11:03;28.90;99.90
5278;DHT22;2662;51.194;6.614;2022-09-13T13:13:34;29.00;99.30
5278;DHT22;2662;51.194;6.614;2022-09-13T13:16:05;28.90;99.90
5278;DHT22;2662;51.194;6.614;2022-09-13T13:18:46;28.90;99.40
5278;DHT22;2662;51.194;6.614;2022-09-13T13:21:36;28.60;99.40
5278;DHT22;2662;51.194;6.614;2022-09-13T13:24:38;28.60;99.70
5278;DHT22;2662;51.194;6.614;2022-09-13T13:27:39;28.80;99.80
5278;DHT22;2662;51.194;6.614;2022-09-13T13:30:38;28.90;99.90
5278;DHT22;2662;51.194;6.614;2022-09-13T13:33:12;28.80;99.80
5278;DHT22;2662;51.194;6.614;2022-09-13T13:35:40;28.70;99.20
5278;DHT22;2662;51.194;6.614;2022-09-13T13:41:05;28.70;99.80
5278;DHT22;2662;51.194;6.614;2022-09-13T13:43:34;28.60;99.90
5278;DHT22;2662;51.194;6.614;2022-09-13T13:46:25;28.60;99.90
5278;DHT22;2662;51.194;6.614;2022-09-13T13:48:52;28.70;99.90
5278;DHT22;2662;51.194;6.614;2022-09-13T13:51:22;28.90;99.90
5278;DHT22;2662;51.194;6.614;2022-09-13T13:53:56;28.90;99.90
5278;DHT22;2662;51.194;6.614;2022-09-13T13:56:31;28.70;99.90
5278;DHT22;2662;51.194;6.614;2022-09-13T13:59:05;28.60;99.90
5278;DHT22;2662;51.194;6.614;2022-09-13T14:01:38;28.90;99.90
5278;DHT22;2662;51.194;6.614;2022-09-13T14:04:53;28.90;99.90
5278;DHT22;2662;51.194;6.614;2022-09-13T14:10:20;29.00;99.90
5278;DHT22;2662;51.194;6.614;2022-09-13T14:13:08;29.20;99.90
5278;DHT22;2662;51.194;6.614;2022-09-13T14:15:50;29.20;99.90
5278;DHT22;2662;51.194;6.614;2022-09-13T14:18:41;29.20;99.90
5278;DHT22;2662;51.194;6.614;2022-09-13T14:21:24;29.00;99.90
5278;DHT22;2662;51.194;6.614;2022-09-13T14:24:07;28.90;99.90
5278;DHT22;2662;51.194;6.614;2022-09-13T14:26:35;28.60;99.90
5278;DHT22;2662;51.194;6.614;2022-09-13T14:29:05;28.50;99.90
5278;DHT22;2662;51.194;6.614;2022-09-13T14:31:34;28.60;99.90
5278;DHT22;2662;51.194;6.614;2022-09-13T14:34:02;28.60;99.90
5278;DHT22;2662;51.194;6.614;2022-09-13T14:36:29;28.70;99.90
5278;DHT22;2662;51.194;6.614;2022-09-13T14:38:58;28.70;99.90
5278;DHT22;2662;51.194;6.614;2022-09-13T14:41:30;28.70;99.90
5278;DHT22;2662;51.194;6.614;2022-09-13T14:44:14;28.70;99.90
5278;DHT22;2662;51.194;6.614;2022-09-13T14:46:44;28.90;99.90
5278;DHT22;2662;51.194;6.614;2022-09-13T14:49:18;28.90;99.90
5278;DHT22;2662;51.194;6.614;2022-09-13T14:51:50;28.80;99.90
5278;DHT22;2662;51.194;6.614;2022-09-13T14:54:20;28.80;99.90
5278;DHT22;2662;51.194;6.614;2022-09-13T14:56:52;28.80;99.90
5278;DHT22;2662;51.194;6.614;2022-09-13T14:59:25;28.80;99.90
5278;DHT22;2662;51.194;6.614;2022-09-13T15:01:55;28.90;99.90
5278;DHT22;2662;51.194;6.614;2022-09-13T15:04:23;29.10;99.90
5278;DHT22;2662;51.194;6.614;2022-09-13T15:07:06;29.20;99.90
5278;DHT22;2662;51.194;6.614;2022-09-13T15:09:33;29.10;99.90
5278;DHT22;2662;51.194;6.614;2022-09-13T15:12:03;28.70;99.90
5278;DHT22;2662;51.194;6.614;2022-09-13T15:14:31;28.50;99.90
5278;DHT22;2662;51.194;6.614;2022-09-13T15:17:06;28.50;99.90
5278;DHT22;2662;51.194;6.614;2022-09-13T15:19:39;28.30;99.90
5278;DHT22;2662;51.194;6.614;2022-09-13T15:22:16;28.20;99.90
5278;DHT22;2662;51.194;6.614;2022-09-13T15:24:46;28.20;99.90
5278;DHT22;2662;51.194;6.614;2022-09-13T15:27:19;28.20;99.90
5278;DHT22;2662;51.194;6.614;2022-09-13T15:29:51;28.20;99.90
5278;DHT22;2662;51.194;6.614;2022-09-13T15:32:23;28.20;99.90
5278;DHT22;2662;51.194;6.614;2022-09-13T15:34:50;28.10;99.90
5278;DHT22;2662;51.194;6.614;2022-09-13T15:37:17;27.90;99.90
5278;DHT22;2662;51.194;6.614;2022-09-13T15:40:06;27.90;99.90
5278;DHT22;2662;51.194;6.614;2022-09-13T15:42:34;27.80;99.90
5278;DHT22;2662;51.194;6.614;2022-09-13T15:45:00;27.70;99.90
5278;DHT22;2662;51.194;6.614;2022-09-13T15:47:29;27.70;99.90
5278;DHT22;2662;51.194;6.614;2022-09-13T15:49:55;27.60;99.90
5278;DHT22;2662;51.194;6.614;2022-09-13T15:52:23;27.50;99.90
5278;DHT22;2662;51.194;6.614;2022-09-13T15:54:50;27.30;99.90
5278;DHT22;2662;51.194;6.614;2022-09-13T15:57:20;27.20;99.90
5278;DHT22;2662;51.194;6.614;2022-09-13T15:59:47;27.20;99.90
5278;DHT22;2662;51.194;6.614;2022-09-13T16:02:18;27.10;99.90
5278;DHT22;2662;51.194;6.614;2022-09-13T16:04:46;27.00;99.90
5278;DHT22;2662;51.194;6.614;2022-09-13T16:07:13;26.90;99.90
5278;DHT22;2662;51.194;6.614;2022-09-13T16:09:40;27.00;99.90
5278;DHT22;2662;51.194;6.614;2022-09-13T16:12:07;27.10;99.90
5278;DHT22;2662;51.194;6.614;2022-09-13T16:14:34;27.10;99.90
5278;DHT22;2662;51.194;6.614;2022-09-13T16:17:03;27.10;99.90
5278;DHT22;2662;51.194;6.614;2022-09-13T16:19:31;27.10;99.90
5278;DHT22;2662;51.194;6.614;2022-09-13T16:21:59;27.10;99.90
5278;DHT22;2662;51.194;6.614;2022-09-13T16:24:26;27.00;99.90
5278;DHT22;2662;51.194;6.614;2022-09-13T16:26:52;26.80;99.90
5278;DHT22;2662;51.194;6.614;2022-09-13T16:29:19;26.70;99.90
5278;DHT22;2662;51.194;6.614;2022-09-13T16:31:46;26.60;99.90
5278;DHT22;2662;51.194;6.614;2022-09-13T16:34:13;26.60;99.90
5278;DHT22;2662;51.194;6.614;2022-09-13T16:36:39;26.70;99.90
5278;DHT22;2662;51.194;6.614;2022-09-13T16:39:07;26.50;99.90
5278;DHT22;2662;51.194;6.614;2022-09-13T16:41:34;26.50;99.90
5278;DHT22;2662;51.194;6.614;2022-09-13T16:44:01;26.50;99.90
5278;DHT22;2662;51.194;6.614;2022-09-13T16:46:29;26.40;99.90
5278;DHT22;2662;51.194;6.614;2022-09-13T16:48:57;26.30;99.90
5278;DHT22;2662;51.194;6.614;2022-09-13T16:51:24;26.20;99.90
5278;DHT22;2662;51.194;6.614;2022-09-13T16:53:52;26.20;99.90
5278;DHT22;2662;51.194;6.614;2022-09-13T16:56:22;26.10;99.90